sensor_id;sensor_type;location;lat;lon;timestamp;P1;durP1;ratioP1;P2;durP2;ratioP2
21032;SDS011;10675;47.976;7.824;2023-05-07T00:00:12;3.83;;;1.70;;
21032;SDS011;10675;47.976;7.824;2023-05-07T00:02:40;2.20;;;1.50;;
21032;SDS011;10675;47.976;7.824;2023-05-07T00:05:06;1.80;;;1.70;;
21032;SDS011;10675;47.976;7.824;2023-05-07T00:07:32;2.17;;;1.63;;
21032;SDS011;10675;47.976;7.824;2023-05-07T00:09:57;5.33;;;1.70;;
21032;SDS011;10675;47.976;7.824;2023-05-07T00:12:23;2.60;;;2.00;;
21032;SDS011;10675;47.976;7.824;2023-05-07T00:14:48;3.60;;;1.67;;
21032;SDS011;10675;47.976;7.824;2023-05-07T00:17:14;4.30;;;1.90;;
21032;SDS011;10675;47.976;7.824;2023-05-07T00:19:39;3.40;;;1.47;;
21032;SDS011;10675;47.976;7.824;2023-05-07T00:22:05;2.93;;;1.80;;
21032;SDS011;10675;47.976;7.824;2023-05-07T00:24:30;3.77;;;1.40;;
21032;SDS011;10675;47.976;7.824;2023-05-07T00:26:56;1.50;;;1.40;;
21032;SDS011;10675;47.976;7.824;2023-05-07T00:29:23;1.80;;;1.70;;
21032;SDS011;10675;47.976;7.824;2023-05-07T00:31:49;1.50;;;1.40;;
21032;SDS011;10675;47.976;7.824;2023-05-07T00:34:15;1.40;;;1.30;;
21032;SDS011;10675;47.976;7.824;2023-05-07T00:36:40;3.00;;;1.60;;
21032;SDS011;10675;47.976;7.824;2023-05-07T00:39:06;4.23;;;1.90;;
21032;SDS011;10675;47.976;7.824;2023-05-07T00:41:31;1.87;;;1.53;;
21032;SDS011;10675;47.976;7.824;2023-05-07T00:43:57;5.23;;;1.60;;
21032;SDS011;10675;47.976;7.824;2023-05-07T00:46:22;5.07;;;1.53;;
21032;SDS011;10675;47.976;7.824;2023-05-07T00:48:49;4.40;;;1.70;;
21032;SDS011;10675;47.976;7.824;2023-05-07T00:51:16;2.40;;;1.50;;
21032;SDS011;10675;47.976;7.824;2023-05-07T00:53:42;1.93;;;1.47;;
21032;SDS011;10675;47.976;7.824;2023-05-07T00:56:08;2.03;;;1.60;;
21032;SDS011;10675;47.976;7.824;2023-05-07T00:58:34;2.80;;;1.60;;
21032;SDS011;10675;47.976;7.824;2023-05-07T01:01:01;1.70;;;1.60;;
21032;SDS011;10675;47.976;7.824;2023-05-07T01:03:27;2.97;;;1.67;;
21032;SDS011;10675;47.976;7.824;2023-05-07T01:05:53;1.87;;;1.70;;
21032;SDS011;10675;47.976;7.824;2023-05-07T01:08:20;2.77;;;1.50;;
21032;SDS011;10675;47.976;7.824;2023-05-07T01:10:47;1.50;;;1.40;;
21032;SDS011;10675;47.976;7.824;2023-05-07T01:13:13;1.97;;;1.77;;
21032;SDS011;10675;47.976;7.824;2023-05-07T01:15:39;4.40;;;1.40;;
21032;SDS011;10675;47.976;7.824;2023-05-07T01:18:08;1.50;;;1.40;;
21032;SDS011;10675;47.976;7.824;2023-05-07T01:20:33;1.60;;;1.50;;
21032;SDS011;10675;47.976;7.824;2023-05-07T01:22:59;3.50;;;1.53;;
21032;SDS011;10675;47.976;7.824;2023-05-07T01:25:26;1.50;;;1.40;;
21032;SDS011;10675;47.976;7.824;2023-05-07T01:27:52;3.87;;;1.57;;
21032;SDS011;10675;47.976;7.824;2023-05-07T01:30:18;2.90;;;1.70;;
21032;SDS011;10675;47.976;7.824;2023-05-07T01:32:52;3.00;;;1.60;;
21032;SDS011;10675;47.976;7.824;2023-05-07T01:35:24;1.37;;;1.33;;
21032;SDS011;10675;47.976;7.824;2023-05-07T01:37:57;1.53;;;1.40;;
21032;SDS011;10675;47.976;7.824;2023-05-07T01:40:23;1.33;;;1.23;;
21032;SDS011;10675;47.976;7.824;2023-05-07T01:42:50;2.30;;;1.80;;
21032;SDS011;10675;47.976;7.824;2023-05-07T01:45:16;2.83;;;1.73;;
21032;SDS011;10675;47.976;7.824;2023-05-07T01:47:42;2.13;;;1.43;;
21032;SDS011;10675;47.976;7.824;2023-05-07T01:50:08;2.83;;;1.60;;
21032;SDS011;10675;47.976;7.824;2023-05-07T01:52:35;2.93;;;1.50;;
21032;SDS011;10675;47.976;7.824;2023-05-07T01:55:02;1.67;;;1.40;;
21032;SDS011;10675;47.976;7.824;2023-05-07T01:57:28;2.93;;;1.67;;
21032;SDS011;10675;47.976;7.824;2023-05-07T01:59:53;2.00;;;1.40;;
21032;SDS011;10675;47.976;7.824;2023-05-07T02:02:19;2.23;;;1.90;;
21032;SDS011;10675;47.976;7.824;2023-05-07T02:04:45;1.53;;;1.43;;
21032;SDS011;10675;47.976;7.824;2023-05-07T02:07:10;3.93;;;1.40;;
21032;SDS011;10675;47.976;7.824;2023-05-07T02:09:36;1.70;;;1.30;;
21032;SDS011;10675;47.976;7.824;2023-05-07T02:12:01;2.37;;;1.43;;
21032;SDS011;10675;47.976;7.824;2023-05-07T02:14:27;1.30;;;1.20;;
21032;SDS011;10675;47.976;7.824;2023-05-07T02:16:52;2.00;;;1.53;;
21032;SDS011;10675;47.976;7.824;2023-05-07T02:19:18;2.23;;;1.53;;
21032;SDS011;10675;47.976;7.824;2023-05-07T02:21:46;1.57;;;1.47;;
21032;SDS011;10675;47.976;7.824;2023-05-07T02:24:12;2.43;;;1.50;;
21032;SDS011;10675;47.976;7.824;2023-05-07T02:26:37;3.23;;;1.80;;
21032;SDS011;10675;47.976;7.824;2023-05-07T02:29:02;2.87;;;1.70;;
21032;SDS011;10675;47.976;7.824;2023-05-07T02:31:28;1.77;;;1.47;;
21032;SDS011;10675;47.976;7.824;2023-05-07T02:33:53;1.63;;;1.53;;
21032;SDS011;10675;47.976;7.824;2023-05-07T02:36:19;1.53;;;1.40;;
21032;SDS011;10675;47.976;7.824;2023-05-07T02:38:44;1.73;;;1.60;;
21032;SDS011;10675;47.976;7.824;2023-05-07T02:41:10;1.93;;;1.60;;
21032;SDS011;10675;47.976;7.824;2023-05-07T02:43:36;2.30;;;1.60;;
21032;SDS011;10675;47.976;7.824;2023-05-07T02:48:27;1.80;;;1.57;;
21032;SDS011;10675;47.976;7.824;2023-05-07T02:50:53;1.67;;;1.57;;
21032;SDS011;10675;47.976;7.824;2023-05-07T02:53:18;1.87;;;1.77;;
21032;SDS011;10675;47.976;7.824;2023-05-07T02:55:44;1.60;;;1.50;;
21032;SDS011;10675;47.976;7.824;2023-05-07T02:58:09;2.10;;;1.70;;
21032;SDS011;10675;47.976;7.824;2023-05-07T03:00:35;2.27;;;1.57;;
21032;SDS011;10675;47.976;7.824;2023-05-07T03:03:00;3.70;;;1.50;;
21032;SDS011;10675;47.976;7.824;2023-05-07T03:05:26;4.43;;;1.83;;
21032;SDS011;10675;47.976;7.824;2023-05-07T03:07:51;1.80;;;1.70;;
21032;SDS011;10675;47.976;7.824;2023-05-07T03:10:17;1.50;;;1.40;;
21032;SDS011;10675;47.976;7.824;2023-05-07T03:12:43;2.13;;;1.43;;
21032;SDS011;10675;47.976;7.824;2023-05-07T03:15:09;1.60;;;1.50;;
21032;SDS011;10675;47.976;7.824;2023-05-07T03:17:36;1.90;;;1.57;;
21032;SDS011;10675;47.976;7.824;2023-05-07T03:20:02;2.17;;;1.33;;
21032;SDS011;10675;47.976;7.824;2023-05-07T03:22:27;1.30;;;1.20;;
21032;SDS011;10675;47.976;7.824;2023-05-07T03:24:53;1.63;;;1.53;;
21032;SDS011;10675;47.976;7.824;2023-05-07T03:27:18;1.63;;;1.53;;
21032;SDS011;10675;47.976;7.824;2023-05-07T03:29:44;1.97;;;1.53;;
21032;SDS011;10675;47.976;7.824;2023-05-07T03:32:10;2.13;;;1.93;;
21032;SDS011;10675;47.976;7.824;2023-05-07T03:34:35;1.67;;;1.57;;
21032;SDS011;10675;47.976;7.824;2023-05-07T03:37:01;1.50;;;1.37;;
21032;SDS011;10675;47.976;7.824;2023-05-07T03:39:26;1.70;;;1.60;;
21032;SDS011;10675;47.976;7.824;2023-05-07T03:41:52;1.60;;;1.50;;
21032;SDS011;10675;47.976;7.824;2023-05-07T03:44:18;2.97;;;1.50;;
21032;SDS011;10675;47.976;7.824;2023-05-07T03:46:43;2.07;;;1.57;;
21032;SDS011;10675;47.976;7.824;2023-05-07T03:49:08;1.73;;;1.50;;
21032;SDS011;10675;47.976;7.824;2023-05-07T03:51:34;3.70;;;1.50;;
21032;SDS011;10675;47.976;7.824;2023-05-07T03:54:00;1.77;;;1.50;;
21032;SDS011;10675;47.976;7.824;2023-05-07T03:56:26;1.70;;;1.60;;
21032;SDS011;10675;47.976;7.824;2023-05-07T03:58:52;1.87;;;1.73;;
21032;SDS011;10675;47.976;7.824;2023-05-07T04:01:18;1.50;;;1.40;;
21032;SDS011;10675;47.976;7.824;2023-05-07T04:03:44;3.77;;;1.70;;
21032;SDS011;10675;47.976;7.824;2023-05-07T04:06:09;1.90;;;1.57;;
21032;SDS011;10675;47.976;7.824;2023-05-07T04:08:35;2.00;;;1.80;;
21032;SDS011;10675;47.976;7.824;2023-05-07T04:11:01;1.80;;;1.70;;
21032;SDS011;10675;47.976;7.824;2023-05-07T04:13:26;5.90;;;2.00;;
21032;SDS011;10675;47.976;7.824;2023-05-07T04:15:52;3.50;;;1.67;;
21032;SDS011;10675;47.976;7.824;2023-05-07T04:18:20;2.70;;;1.73;;
21032;SDS011;10675;47.976;7.824;2023-05-07T04:20:46;1.87;;;1.60;;
21032;SDS011;10675;47.976;7.824;2023-05-07T04:23:12;2.10;;;1.67;;
21032;SDS011;10675;47.976;7.824;2023-05-07T04:25:38;1.53;;;1.43;;
21032;SDS011;10675;47.976;7.824;2023-05-07T04:28:03;3.40;;;1.70;;
21032;SDS011;10675;47.976;7.824;2023-05-07T04:30:29;2.67;;;1.90;;
21032;SDS011;10675;47.976;7.824;2023-05-07T04:32:55;4.73;;;1.60;;
21032;SDS011;10675;47.976;7.824;2023-05-07T04:35:21;2.40;;;1.70;;
21032;SDS011;10675;47.976;7.824;2023-05-07T04:37:46;3.17;;;1.93;;
21032;SDS011;10675;47.976;7.824;2023-05-07T04:40:12;1.90;;;1.50;;
21032;SDS011;10675;47.976;7.824;2023-05-07T04:42:38;1.50;;;1.40;;
21032;SDS011;10675;47.976;7.824;2023-05-07T04:45:03;1.67;;;1.47;;
21032;SDS011;10675;47.976;7.824;2023-05-07T04:47:30;2.50;;;1.77;;
21032;SDS011;10675;47.976;7.824;2023-05-07T04:49:55;1.70;;;1.60;;
21032;SDS011;10675;47.976;7.824;2023-05-07T04:52:22;5.70;;;1.60;;
21032;SDS011;10675;47.976;7.824;2023-05-07T04:54:47;1.90;;;1.80;;
21032;SDS011;10675;47.976;7.824;2023-05-07T04:57:13;1.80;;;1.70;;
21032;SDS011;10675;47.976;7.824;2023-05-07T04:59:38;2.37;;;1.60;;
21032;SDS011;10675;47.976;7.824;2023-05-07T05:02:04;2.67;;;1.50;;
21032;SDS011;10675;47.976;7.824;2023-05-07T05:04:29;3.13;;;1.63;;
21032;SDS011;10675;47.976;7.824;2023-05-07T05:06:55;2.53;;;1.50;;
21032;SDS011;10675;47.976;7.824;2023-05-07T05:09:21;2.27;;;1.50;;
21032;SDS011;10675;47.976;7.824;2023-05-07T05:11:47;2.50;;;1.30;;
21032;SDS011;10675;47.976;7.824;2023-05-07T05:14:12;2.43;;;1.60;;
21032;SDS011;10675;47.976;7.824;2023-05-07T05:16:38;4.20;;;1.73;;
21032;SDS011;10675;47.976;7.824;2023-05-07T05:19:04;1.50;;;1.40;;
21032;SDS011;10675;47.976;7.824;2023-05-07T05:21:29;1.93;;;1.73;;
21032;SDS011;10675;47.976;7.824;2023-05-07T05:23:55;2.40;;;1.70;;
21032;SDS011;10675;47.976;7.824;2023-05-07T05:26:21;2.03;;;1.83;;
21032;SDS011;10675;47.976;7.824;2023-05-07T05:28:46;2.03;;;1.60;;
21032;SDS011;10675;47.976;7.824;2023-05-07T05:31:12;5.57;;;2.00;;
21032;SDS011;10675;47.976;7.824;2023-05-07T05:33:39;1.77;;;1.67;;
21032;SDS011;10675;47.976;7.824;2023-05-07T05:36:05;1.70;;;1.60;;
21032;SDS011;10675;47.976;7.824;2023-05-07T05:38:31;1.70;;;1.60;;
21032;SDS011;10675;47.976;7.824;2023-05-07T05:40:56;1.90;;;1.80;;
21032;SDS011;10675;47.976;7.824;2023-05-07T05:43:22;2.57;;;1.83;;
21032;SDS011;10675;47.976;7.824;2023-05-07T05:45:47;2.00;;;1.70;;
21032;SDS011;10675;47.976;7.824;2023-05-07T05:48:13;2.07;;;1.57;;
21032;SDS011;10675;47.976;7.824;2023-05-07T05:50:38;2.10;;;1.90;;
21032;SDS011;10675;47.976;7.824;2023-05-07T05:53:04;2.27;;;1.80;;
21032;SDS011;10675;47.976;7.824;2023-05-07T05:55:30;1.90;;;1.80;;
21032;SDS011;10675;47.976;7.824;2023-05-07T05:57:57;2.10;;;1.70;;
21032;SDS011;10675;47.976;7.824;2023-05-07T06:00:23;5.20;;;2.57;;
21032;SDS011;10675;47.976;7.824;2023-05-07T06:02:48;4.63;;;2.20;;
21032;SDS011;10675;47.976;7.824;2023-05-07T06:05:14;4.27;;;2.10;;
21032;SDS011;10675;47.976;7.824;2023-05-07T06:07:40;3.30;;;2.37;;
21032;SDS011;10675;47.976;7.824;2023-05-07T06:10:05;2.53;;;2.33;;
21032;SDS011;10675;47.976;7.824;2023-05-07T06:12:31;4.57;;;2.13;;
21032;SDS011;10675;47.976;7.824;2023-05-07T06:14:57;5.20;;;2.43;;
21032;SDS011;10675;47.976;7.824;2023-05-07T06:17:23;4.73;;;2.37;;
21032;SDS011;10675;47.976;7.824;2023-05-07T06:19:48;3.13;;;2.10;;
21032;SDS011;10675;47.976;7.824;2023-05-07T06:22:14;2.57;;;2.10;;
21032;SDS011;10675;47.976;7.824;2023-05-07T06:24:39;3.77;;;2.20;;
21032;SDS011;10675;47.976;7.824;2023-05-07T06:27:05;2.37;;;2.17;;
21032;SDS011;10675;47.976;7.824;2023-05-07T06:29:30;7.27;;;2.43;;
21032;SDS011;10675;47.976;7.824;2023-05-07T06:32:05;2.97;;;2.13;;
21032;SDS011;10675;47.976;7.824;2023-05-07T06:34:32;2.40;;;2.30;;
21032;SDS011;10675;47.976;7.824;2023-05-07T06:36:58;2.50;;;2.17;;
21032;SDS011;10675;47.976;7.824;2023-05-07T06:39:23;2.50;;;2.03;;
21032;SDS011;10675;47.976;7.824;2023-05-07T06:41:49;3.60;;;2.50;;
21032;SDS011;10675;47.976;7.824;2023-05-07T06:44:15;3.03;;;2.50;;
21032;SDS011;10675;47.976;7.824;2023-05-07T06:46:40;2.67;;;2.13;;
21032;SDS011;10675;47.976;7.824;2023-05-07T06:49:06;6.10;;;2.30;;
21032;SDS011;10675;47.976;7.824;2023-05-07T06:51:32;2.57;;;2.37;;
21032;SDS011;10675;47.976;7.824;2023-05-07T06:53:58;3.20;;;2.43;;
21032;SDS011;10675;47.976;7.824;2023-05-07T06:56:23;3.17;;;2.20;;
21032;SDS011;10675;47.976;7.824;2023-05-07T06:58:49;3.53;;;2.67;;
21032;SDS011;10675;47.976;7.824;2023-05-07T07:01:15;5.00;;;2.90;;
21032;SDS011;10675;47.976;7.824;2023-05-07T07:03:41;2.60;;;2.40;;
21032;SDS011;10675;47.976;7.824;2023-05-07T07:06:06;2.80;;;2.33;;
21032;SDS011;10675;47.976;7.824;2023-05-07T07:08:32;2.40;;;2.20;;
21032;SDS011;10675;47.976;7.824;2023-05-07T07:10:57;2.70;;;2.37;;
21032;SDS011;10675;47.976;7.824;2023-05-07T07:13:23;2.57;;;2.37;;
21032;SDS011;10675;47.976;7.824;2023-05-07T07:15:48;2.77;;;2.27;;
21032;SDS011;10675;47.976;7.824;2023-05-07T07:18:14;2.67;;;2.10;;
21032;SDS011;10675;47.976;7.824;2023-05-07T07:20:40;2.10;;;1.90;;
21032;SDS011;10675;47.976;7.824;2023-05-07T07:23:05;4.13;;;2.40;;
21032;SDS011;10675;47.976;7.824;2023-05-07T07:25:31;3.00;;;2.43;;
21032;SDS011;10675;47.976;7.824;2023-05-07T07:27:57;2.50;;;2.23;;
21032;SDS011;10675;47.976;7.824;2023-05-07T07:30:22;2.53;;;2.33;;
21032;SDS011;10675;47.976;7.824;2023-05-07T07:32:48;3.30;;;2.50;;
21032;SDS011;10675;47.976;7.824;2023-05-07T07:35:13;6.63;;;2.50;;
21032;SDS011;10675;47.976;7.824;2023-05-07T07:37:39;4.17;;;2.50;;
21032;SDS011;10675;47.976;7.824;2023-05-07T07:40:05;3.90;;;2.80;;
21032;SDS011;10675;47.976;7.824;2023-05-07T07:42:31;4.97;;;2.70;;
21032;SDS011;10675;47.976;7.824;2023-05-07T07:44:56;4.25;;;2.30;;
21032;SDS011;10675;47.976;7.824;2023-05-07T07:47:22;2.35;;;2.15;;
21032;SDS011;10675;47.976;7.824;2023-05-07T07:49:48;3.80;;;2.40;;
21032;SDS011;10675;47.976;7.824;2023-05-07T07:52:13;5.07;;;2.90;;
21032;SDS011;10675;47.976;7.824;2023-05-07T07:54:39;2.97;;;2.38;;
21032;SDS011;10675;47.976;7.824;2023-05-07T07:57:05;3.17;;;2.72;;
21032;SDS011;10675;47.976;7.824;2023-05-07T07:59:30;2.80;;;2.42;;
21032;SDS011;10675;47.976;7.824;2023-05-07T08:01:56;2.50;;;2.30;;
21032;SDS011;10675;47.976;7.824;2023-05-07T08:04:22;3.78;;;2.50;;
21032;SDS011;10675;47.976;7.824;2023-05-07T08:06:47;4.15;;;2.58;;
21032;SDS011;10675;47.976;7.824;2023-05-07T08:09:13;2.80;;;2.60;;
21032;SDS011;10675;47.976;7.824;2023-05-07T08:11:39;3.15;;;2.50;;
21032;SDS011;10675;47.976;7.824;2023-05-07T08:14:05;4.82;;;2.65;;
21032;SDS011;10675;47.976;7.824;2023-05-07T08:16:30;4.90;;;3.03;;
21032;SDS011;10675;47.976;7.824;2023-05-07T08:18:56;2.83;;;2.53;;
21032;SDS011;10675;47.976;7.824;2023-05-07T08:21:22;5.53;;;2.50;;
21032;SDS011;10675;47.976;7.824;2023-05-07T08:23:47;7.15;;;2.80;;
21032;SDS011;10675;47.976;7.824;2023-05-07T08:26:13;4.80;;;2.58;;
21032;SDS011;10675;47.976;7.824;2023-05-07T08:28:39;3.10;;;2.40;;
21032;SDS011;10675;47.976;7.824;2023-05-07T08:31:04;4.28;;;2.35;;
21032;SDS011;10675;47.976;7.824;2023-05-07T08:33:30;2.85;;;2.55;;
21032;SDS011;10675;47.976;7.824;2023-05-07T08:35:56;2.78;;;2.58;;
21032;SDS011;10675;47.976;7.824;2023-05-07T08:38:21;2.85;;;2.17;;
21032;SDS011;10675;47.976;7.824;2023-05-07T08:40:47;2.50;;;2.03;;
21032;SDS011;10675;47.976;7.824;2023-05-07T08:43:13;3.08;;;2.55;;
21032;SDS011;10675;47.976;7.824;2023-05-07T08:45:40;3.65;;;2.55;;
21032;SDS011;10675;47.976;7.824;2023-05-07T08:48:09;2.33;;;2.10;;
21032;SDS011;10675;47.976;7.824;2023-05-07T08:50:40;4.95;;;2.63;;
21032;SDS011;10675;47.976;7.824;2023-05-07T08:53:05;4.63;;;3.17;;
21032;SDS011;10675;47.976;7.824;2023-05-07T08:55:31;3.08;;;2.70;;
21032;SDS011;10675;47.976;7.824;2023-05-07T08:57:58;3.47;;;2.53;;
21032;SDS011;10675;47.976;7.824;2023-05-07T09:00:24;5.20;;;2.60;;
21032;SDS011;10675;47.976;7.824;2023-05-07T09:02:49;3.00;;;2.65;;
21032;SDS011;10675;47.976;7.824;2023-05-07T09:05:15;4.82;;;3.10;;
21032;SDS011;10675;47.976;7.824;2023-05-07T09:07:40;4.38;;;3.47;;
21032;SDS011;10675;47.976;7.824;2023-05-07T09:10:06;4.63;;;3.03;;
21032;SDS011;10675;47.976;7.824;2023-05-07T09:12:32;3.95;;;2.88;;
21032;SDS011;10675;47.976;7.824;2023-05-07T09:15:00;4.30;;;3.42;;
21032;SDS011;10675;47.976;7.824;2023-05-07T09:17:25;3.58;;;3.28;;
21032;SDS011;10675;47.976;7.824;2023-05-07T09:19:51;6.45;;;2.90;;
21032;SDS011;10675;47.976;7.824;2023-05-07T09:22:18;3.78;;;2.63;;
21032;SDS011;10675;47.976;7.824;2023-05-07T09:24:47;2.50;;;2.30;;
21032;SDS011;10675;47.976;7.824;2023-05-07T09:27:14;2.85;;;2.60;;
21032;SDS011;10675;47.976;7.824;2023-05-07T09:29:39;3.63;;;2.40;;
21032;SDS011;10675;47.976;7.824;2023-05-07T09:32:05;3.35;;;2.30;;
21032;SDS011;10675;47.976;7.824;2023-05-07T09:34:31;3.92;;;2.50;;
21032;SDS011;10675;47.976;7.824;2023-05-07T09:37:04;2.10;;;2.00;;
21032;SDS011;10675;47.976;7.824;2023-05-07T09:42:05;7.35;;;2.38;;
21032;SDS011;10675;47.976;7.824;2023-05-07T09:44:31;4.40;;;2.80;;
21032;SDS011;10675;47.976;7.824;2023-05-07T09:46:57;2.50;;;2.20;;
21032;SDS011;10675;47.976;7.824;2023-05-07T09:49:25;5.32;;;2.58;;
21032;SDS011;10675;47.976;7.824;2023-05-07T09:51:55;3.85;;;2.42;;
21032;SDS011;10675;47.976;7.824;2023-05-07T09:54:22;3.97;;;2.60;;
21032;SDS011;10675;47.976;7.824;2023-05-07T09:56:48;2.92;;;2.13;;
21032;SDS011;10675;47.976;7.824;2023-05-07T09:59:15;2.47;;;2.20;;
21032;SDS011;10675;47.976;7.824;2023-05-07T10:01:42;4.90;;;2.25;;
21032;SDS011;10675;47.976;7.824;2023-05-07T10:04:09;4.15;;;2.38;;
21032;SDS011;10675;47.976;7.824;2023-05-07T10:06:35;3.42;;;2.67;;
21032;SDS011;10675;47.976;7.824;2023-05-07T10:09:02;3.20;;;2.20;;
21032;SDS011;10675;47.976;7.824;2023-05-07T10:11:31;3.00;;;2.20;;
21032;SDS011;10675;47.976;7.824;2023-05-07T10:13:58;2.97;;;2.20;;
21032;SDS011;10675;47.976;7.824;2023-05-07T10:16:24;3.17;;;2.20;;
21032;SDS011;10675;47.976;7.824;2023-05-07T10:18:50;3.57;;;2.53;;
21032;SDS011;10675;47.976;7.824;2023-05-07T10:21:20;3.23;;;2.33;;
21032;SDS011;10675;47.976;7.824;2023-05-07T10:23:49;3.80;;;2.30;;
21032;SDS011;10675;47.976;7.824;2023-05-07T10:26:39;3.40;;;2.53;;
21032;SDS011;10675;47.976;7.824;2023-05-07T10:32:08;3.07;;;2.40;;
21032;SDS011;10675;47.976;7.824;2023-05-07T10:34:40;2.97;;;2.37;;
21032;SDS011;10675;47.976;7.824;2023-05-07T10:37:09;2.87;;;2.57;;
21032;SDS011;10675;47.976;7.824;2023-05-07T10:39:36;2.57;;;2.37;;
21032;SDS011;10675;47.976;7.824;2023-05-07T10:42:11;3.10;;;2.80;;
21032;SDS011;10675;47.976;7.824;2023-05-07T10:44:38;3.07;;;2.77;;
21032;SDS011;10675;47.976;7.824;2023-05-07T10:47:05;4.03;;;2.53;;
21032;SDS011;10675;47.976;7.824;2023-05-07T10:49:33;2.77;;;2.57;;
21032;SDS011;10675;47.976;7.824;2023-05-07T10:52:22;2.40;;;2.20;;
21032;SDS011;10675;47.976;7.824;2023-05-07T10:55:18;5.90;;;2.70;;
21032;SDS011;10675;47.976;7.824;2023-05-07T10:57:42;4.30;;;2.37;;
21032;SDS011;10675;47.976;7.824;2023-05-07T11:05:29;3.03;;;2.73;;
21032;SDS011;10675;47.976;7.824;2023-05-07T11:08:02;3.27;;;2.97;;
21032;SDS011;10675;47.976;7.824;2023-05-07T11:13:14;3.35;;;2.58;;
21032;SDS011;10675;47.976;7.824;2023-05-07T11:18:11;3.55;;;2.47;;
21032;SDS011;10675;47.976;7.824;2023-05-07T11:20:44;3.03;;;2.83;;
21032;SDS011;10675;47.976;7.824;2023-05-07T11:26:04;5.35;;;2.38;;
21032;SDS011;10675;47.976;7.824;2023-05-07T11:28:31;3.13;;;2.42;;
21032;SDS011;10675;47.976;7.824;2023-05-07T11:31:01;2.45;;;2.25;;
21032;SDS011;10675;47.976;7.824;2023-05-07T11:33:27;2.55;;;2.35;;
21032;SDS011;10675;47.976;7.824;2023-05-07T11:35:53;2.30;;;1.98;;
21032;SDS011;10675;47.976;7.824;2023-05-07T11:38:19;3.75;;;2.35;;
21032;SDS011;10675;47.976;7.824;2023-05-07T11:40:49;2.50;;;2.30;;
21032;SDS011;10675;47.976;7.824;2023-05-07T11:43:15;4.18;;;2.47;;
21032;SDS011;10675;47.976;7.824;2023-05-07T11:45:41;2.80;;;2.40;;
21032;SDS011;10675;47.976;7.824;2023-05-07T11:48:07;3.05;;;2.10;;
21032;SDS011;10675;47.976;7.824;2023-05-07T11:50:32;4.80;;;2.38;;
21032;SDS011;10675;47.976;7.824;2023-05-07T11:52:58;2.30;;;1.85;;
21032;SDS011;10675;47.976;7.824;2023-05-07T11:55:24;4.23;;;2.33;;
21032;SDS011;10675;47.976;7.824;2023-05-07T11:57:50;3.47;;;2.43;;
21032;SDS011;10675;47.976;7.824;2023-05-07T12:00:16;3.07;;;2.70;;
21032;SDS011;10675;47.976;7.824;2023-05-07T12:02:44;3.10;;;2.80;;
21032;SDS011;10675;47.976;7.824;2023-05-07T12:05:10;4.23;;;2.67;;
21032;SDS011;10675;47.976;7.824;2023-05-07T12:07:36;3.20;;;2.90;;
21032;SDS011;10675;47.976;7.824;2023-05-07T12:10:05;2.83;;;2.63;;
21032;SDS011;10675;47.976;7.824;2023-05-07T12:12:32;3.93;;;3.00;;
21032;SDS011;10675;47.976;7.824;2023-05-07T12:15:03;4.50;;;3.17;;
21032;SDS011;10675;47.976;7.824;2023-05-07T12:17:29;3.97;;;2.65;;
21032;SDS011;10675;47.976;7.824;2023-05-07T12:19:55;3.45;;;3.00;;
21032;SDS011;10675;47.976;7.824;2023-05-07T12:22:21;2.40;;;2.20;;
21032;SDS011;10675;47.976;7.824;2023-05-07T12:27:21;3.72;;;2.40;;
21032;SDS011;10675;47.976;7.824;2023-05-07T12:29:48;2.85;;;2.20;;
21032;SDS011;10675;47.976;7.824;2023-05-07T12:32:15;5.05;;;2.83;;
21032;SDS011;10675;47.976;7.824;2023-05-07T12:34:44;2.65;;;2.45;;
21032;SDS011;10675;47.976;7.824;2023-05-07T12:37:10;2.60;;;2.40;;
21032;SDS011;10675;47.976;7.824;2023-05-07T12:39:37;2.95;;;2.72;;
21032;SDS011;10675;47.976;7.824;2023-05-07T12:42:03;3.00;;;2.50;;
21032;SDS011;10675;47.976;7.824;2023-05-07T12:44:29;3.30;;;2.80;;
21032;SDS011;10675;47.976;7.824;2023-05-07T12:47:01;3.30;;;3.00;;
21032;SDS011;10675;47.976;7.824;2023-05-07T12:49:27;4.83;;;2.40;;
21032;SDS011;10675;47.976;7.824;2023-05-07T12:51:53;3.27;;;2.67;;
21032;SDS011;10675;47.976;7.824;2023-05-07T12:54:29;3.10;;;2.10;;
21032;SDS011;10675;47.976;7.824;2023-05-07T12:57:01;3.07;;;2.00;;
21032;SDS011;10675;47.976;7.824;2023-05-07T12:59:41;2.60;;;2.20;;
21032;SDS011;10675;47.976;7.824;2023-05-07T13:02:07;2.60;;;2.00;;
21032;SDS011;10675;47.976;7.824;2023-05-07T13:04:34;2.33;;;2.10;;
21032;SDS011;10675;47.976;7.824;2023-05-07T13:07:00;2.30;;;2.10;;
21032;SDS011;10675;47.976;7.824;2023-05-07T13:09:27;2.23;;;2.03;;
21032;SDS011;10675;47.976;7.824;2023-05-07T13:11:54;2.50;;;1.80;;
21032;SDS011;10675;47.976;7.824;2023-05-07T13:14:20;2.30;;;2.10;;
21032;SDS011;10675;47.976;7.824;2023-05-07T13:16:45;4.03;;;2.57;;
21032;SDS011;10675;47.976;7.824;2023-05-07T13:19:11;2.07;;;1.90;;
21032;SDS011;10675;47.976;7.824;2023-05-07T13:21:37;2.33;;;2.10;;
21032;SDS011;10675;47.976;7.824;2023-05-07T13:24:03;3.40;;;2.57;;
21032;SDS011;10675;47.976;7.824;2023-05-07T13:26:29;4.03;;;2.70;;
21032;SDS011;10675;47.976;7.824;2023-05-07T13:28:56;3.37;;;2.20;;
21032;SDS011;10675;47.976;7.824;2023-05-07T13:31:21;2.80;;;2.60;;
21032;SDS011;10675;47.976;7.824;2023-05-07T13:33:47;3.00;;;2.70;;
21032;SDS011;10675;47.976;7.824;2023-05-07T13:36:12;2.60;;;2.40;;
21032;SDS011;10675;47.976;7.824;2023-05-07T13:38:39;2.72;;;2.53;;
21032;SDS011;10675;47.976;7.824;2023-05-07T13:41:05;3.08;;;2.40;;
21032;SDS011;10675;47.976;7.824;2023-05-07T13:43:30;3.47;;;3.17;;
21032;SDS011;10675;47.976;7.824;2023-05-07T13:45:58;4.22;;;3.00;;
21032;SDS011;10675;47.976;7.824;2023-05-07T13:48:24;3.15;;;2.15;;
21032;SDS011;10675;47.976;7.824;2023-05-07T13:50:49;4.40;;;2.50;;
21032;SDS011;10675;47.976;7.824;2023-05-07T13:53:15;3.95;;;3.33;;
21032;SDS011;10675;47.976;7.824;2023-05-07T13:55:43;3.30;;;2.50;;
21032;SDS011;10675;47.976;7.824;2023-05-07T13:58:09;3.95;;;2.78;;
21032;SDS011;10675;47.976;7.824;2023-05-07T14:00:34;3.70;;;2.38;;
21032;SDS011;10675;47.976;7.824;2023-05-07T14:03:00;2.35;;;2.15;;
21032;SDS011;10675;47.976;7.824;2023-05-07T14:05:25;3.67;;;2.65;;
21032;SDS011;10675;47.976;7.824;2023-05-07T14:07:54;5.43;;;2.40;;
21032;SDS011;10675;47.976;7.824;2023-05-07T14:10:21;2.60;;;2.40;;
21032;SDS011;10675;47.976;7.824;2023-05-07T14:12:47;2.78;;;2.28;;
21032;SDS011;10675;47.976;7.824;2023-05-07T14:15:13;2.22;;;2.03;;
21032;SDS011;10675;47.976;7.824;2023-05-07T14:17:38;3.72;;;2.50;;
21032;SDS011;10675;47.976;7.824;2023-05-07T14:20:04;3.53;;;2.50;;
21032;SDS011;10675;47.976;7.824;2023-05-07T14:22:33;3.55;;;2.55;;
21032;SDS011;10675;47.976;7.824;2023-05-07T14:24:58;3.40;;;2.20;;
21032;SDS011;10675;47.976;7.824;2023-05-07T14:27:23;2.75;;;2.30;;
21032;SDS011;10675;47.976;7.824;2023-05-07T14:29:49;2.42;;;2.22;;
21032;SDS011;10675;47.976;7.824;2023-05-07T14:32:19;4.15;;;2.50;;
21032;SDS011;10675;47.976;7.824;2023-05-07T14:34:45;3.47;;;2.10;;
21032;SDS011;10675;47.976;7.824;2023-05-07T14:37:11;2.15;;;1.98;;
21032;SDS011;10675;47.976;7.824;2023-05-07T14:39:36;1.80;;;1.70;;
21032;SDS011;10675;47.976;7.824;2023-05-07T14:42:02;3.35;;;1.80;;
21032;SDS011;10675;47.976;7.824;2023-05-07T14:44:28;3.45;;;1.80;;
21032;SDS011;10675;47.976;7.824;2023-05-07T14:46:53;3.03;;;2.20;;
21032;SDS011;10675;47.976;7.824;2023-05-07T14:49:19;1.70;;;1.60;;
21032;SDS011;10675;47.976;7.824;2023-05-07T14:51:45;2.10;;;1.90;;
21032;SDS011;10675;47.976;7.824;2023-05-07T14:54:12;4.25;;;1.60;;
21032;SDS011;10675;47.976;7.824;2023-05-07T14:56:38;3.88;;;1.50;;
21032;SDS011;10675;47.976;7.824;2023-05-07T14:59:04;1.90;;;1.20;;
21032;SDS011;10675;47.976;7.824;2023-05-07T15:01:30;1.17;;;1.00;;
21032;SDS011;10675;47.976;7.824;2023-05-07T15:03:55;1.15;;;1.08;;
21032;SDS011;10675;47.976;7.824;2023-05-07T15:06:21;0.90;;;0.90;;